Barrow, Argentina
Current Conditions -  °F | °C
As of 6:00 PM on Wednesday 17 Dec 2014 (Local Time) from SAZM Reporting Station
Few Clouds Few Clouds  
Wind Chill: 68°   Ceiling: Unl
Heat Index: 68°   Visibility: 6mi
Dew Point: 55°   Wind: 12mph
Humidity: 64%   Direction: 180°S
Pressure: 29.88"   Gusts: NA
Location:  38.31°S, 60.13°W
Report Text: SAZM 172100Z 18010KT 9999 FEW020 FEW035TCU 20/13 Q1012
Loading
Personal Weather Stations






























Interactive Weather Map New forecast layout! Learn more

10-Day Weather Forecast

Advertisements
Track Severe Weather on mobile